Camp Roberts, California
Current Conditions -  °F | °C
As of 6:53 PM on Monday 20 Oct 2014 (Local Time) from KPRB Reporting Station
Clear Clear  
Wind Chill: 66°   Ceiling: Unl
Heat Index: 66°   Visibility: 10mi
Dew Point: 54°   Wind: 10mph
Humidity: 65%   Direction: 300°WNW
Pressure: 29.94"   Gusts: NA
Location:  35.7552°N, 120.63°W
Report Text: KPRB 210153Z AUTO 30009KT 10SM CLR 19/12 A2994 RMK AO2 SLP133 T01890122 TSNO
Loading
Personal Weather Stations






























Interactive Weather Map
Tropical Storm Tracking
New forecast layout! Learn more

10-Day Weather Forecast

Advertisements
Track Severe Weather on mobile